Time;durP1;ratioP1;P1;durP2;ratioP2;P2;SDS_P1;SDS_P2;PMS_P1;PMS_P2;Temp;Humidity;BMP_temperature;BMP_pressure;BME280_temperature;BME280_humidity;BME280_pressure;Samples;Min_cycle;Max_cycle;Signal;HPM_P1;HPM_P2
2021/09/01 00:02:08;;;;;;;18.50;9.60;;;;;;;22.72;46.22;102513.44;4422630;32;20348;-67
2021/09/01 00:04:33;;;;;;;19.90;10.15;;;;;;;22.74;46.24;102515.81;4420139;32;20382;-67
2021/09/01 00:06:59;;;;;;;23.80;11.23;;;;;;;22.70;46.35;102520.94;4418973;32;20030;-67
2021/09/01 00:09:25;;;;;;;21.37;11.02;;;;;;;22.41;46.92;102514.84;4424585;32;20034;-67
2021/09/01 00:11:51;;;;;;;29.08;12.07;;;;;;;22.45;46.88;102513.41;4422869;32;20109;-67
2021/09/01 00:14:17;;;;;;;26.67;11.82;;;;;;;22.48;46.89;102508.78;4421768;32;20039;-67
2021/09/01 00:16:44;;;;;;;24.83;11.70;;;;;;;22.34;47.35;102504.50;4424921;32;20375;-67
2021/09/01 00:19:10;;;;;;;22.55;11.02;;;;;;;22.42;47.10;102510.69;4420585;32;20350;-67
2021/09/01 00:21:37;;;;;;;22.62;11.85;;;;;;;22.35;47.22;102511.81;4422767;32;20037;-67
2021/09/01 00:24:03;;;;;;;21.52;11.20;;;;;;;22.43;47.18;102506.56;4419221;32;20112;-67
2021/09/01 00:26:29;;;;;;;19.73;11.93;;;;;;;22.36;47.25;102506.91;4425390;32;20116;-67
2021/09/01 00:28:56;;;;;;;22.58;11.63;;;;;;;22.28;47.48;102508.47;4426269;32;20094;-67
2021/09/01 00:31:22;;;;;;;23.75;11.88;;;;;;;22.22;47.66;102504.66;4422578;32;20469;-67
2021/09/01 00:33:48;;;;;;;26.55;11.57;;;;;;;22.20;47.67;102505.13;4419552;32;20037;-67
2021/09/01 00:36:15;;;;;;;23.87;11.70;;;;;;;22.42;47.06;102510.69;4425047;32;20327;-67
2021/09/01 00:38:40;;;;;;;28.95;12.35;;;;;;;22.50;46.91;102509.94;4427264;32;20108;-67
2021/09/01 00:41:07;;;;;;;33.72;12.27;;;;;;;22.37;46.99;102514.22;4420252;32;20033;-67
2021/09/01 00:43:33;;;;;;;33.72;13.68;;;;;;;22.41;47.04;102511.97;4420640;32;20124;-67
2021/09/01 00:45:59;;;;;;;26.92;13.57;;;;;;;22.49;46.68;102504.66;4424315;32;20395;-67
2021/09/01 00:48:25;;;;;;;33.22;13.93;;;;;;;22.36;46.80;102510.53;4423599;32;20021;-67
2021/09/01 00:50:54;;;;;;;25.50;12.48;;;;;;;22.20;47.38;102499.41;4421607;32;20128;-67
2021/09/01 00:53:20;;;;;;;69.70;17.02;;;;;;;22.40;46.92;102496.81;4423191;32;20026;-67
2021/09/01 00:55:47;;;;;;;65.00;16.98;;;;;;;22.27;47.17;102501.94;4419631;32;20069;-67
2021/09/01 00:58:15;;;;;;;37.28;14.23;;;;;;;22.31;47.06;102496.84;4419808;32;20054;-67
2021/09/01 01:01:06;;;;;;;31.55;13.48;;;;;;;22.39;46.91;102495.25;4419965;32;20052;-67
2021/09/01 01:03:27;;;;;;;22.30;12.18;;;;;;;21.97;47.51;102487.75;4422293;32;20096;-67
2021/09/01 01:05:57;;;;;;;29.92;13.13;;;;;;;21.96;47.48;102498.41;4420765;32;20030;-67
2021/09/01 01:08:27;;;;;;;25.60;12.68;;;;;;;22.25;47.20;102510.25;4425218;32;20038;-67
2021/09/01 01:10:55;;;;;;;29.37;12.43;;;;;;;22.26;47.06;102508.16;4421538;32;20426;-67
2021/09/01 01:13:21;;;;;;;24.23;11.98;;;;;;;22.20;47.04;102501.44;4425548;32;20073;-67
2021/09/01 01:15:46;;;;;;;27.92;11.90;;;;;;;21.94;47.53;102500.16;4424418;32;20312;-67
2021/09/01 01:18:13;;;;;;;28.67;12.75;;;;;;;21.87;47.52;102501.25;4424812;32;20423;-67
2021/09/01 01:20:39;;;;;;;30.37;12.90;;;;;;;22.15;47.12;102516.44;4423505;32;20175;-67
2021/09/01 01:23:06;;;;;;;26.02;12.70;;;;;;;22.03;47.30;102503.81;4419638;32;20041;-67
2021/09/01 01:28:10;;;;;;;27.55;12.50;;;;;;;22.48;46.70;102512.47;3993486;31;15141171;-68
2021/09/01 01:30:37;;;;;;;28.87;12.85;;;;;;;22.48;46.70;102512.47;4443564;32;20041;-68
2021/09/01 01:33:04;;;;;;;29.85;12.75;;;;;;;21.94;47.34;102506.72;4457156;32;20099;-68
2021/09/01 01:38:11;;;;;;;29.80;14.85;;;;;;;22.89;45.94;102503.16;3984201;32;15022032;-68
2021/09/01 01:40:38;;;;;;;29.48;14.38;;;;;;;22.89;45.94;102503.16;4431963;32;20045;-68
2021/09/01 01:43:04;;;;;;;27.50;14.35;;;;;;;22.58;46.28;102501.81;4438325;32;20056;-68
2021/09/01 01:45:34;;;;;;;32.60;14.52;;;;;;;22.77;45.75;102500.50;4441041;32;20087;-68
2021/09/01 01:48:01;;;;;;;30.05;13.70;;;;;;;23.01;45.31;102496.44;4435075;32;20101;-68
2021/09/01 01:50:27;;;;;;;29.23;13.95;;;;;;;22.91;45.19;102494.87;4437794;32;20507;-68
2021/09/01 01:52:53;;;;;;;25.17;14.65;;;;;;;23.05;45.23;102493.41;4436891;32;20068;-68
2021/09/01 01:55:19;;;;;;;29.67;14.25;;;;;;;23.04;45.04;102497.56;4431321;32;20500;-68
2021/09/01 01:57:44;;;;;;;32.65;14.45;;;;;;;23.06;44.83;102495.00;4438760;32;20037;-68
2021/09/01 02:00:10;;;;;;;28.17;13.55;;;;;;;23.27;44.45;102494.00;4436014;32;20044;-68
2021/09/01 02:02:36;;;;;;;35.67;15.07;;;;;;;23.32;44.27;102491.25;4432911;32;20493;-70
2021/09/01 02:05:02;;;;;;;26.95;14.02;;;;;;;23.37;44.21;102498.41;4436874;32;20077;-70
2021/09/01 02:07:29;;;;;;;30.77;14.15;;;;;;;23.51;43.64;102506.34;4437090;32;20045;-70
2021/09/01 02:09:55;;;;;;;26.35;13.68;;;;;;;23.66;43.42;102510.09;4436068;32;20089;-70
2021/09/01 02:12:21;;;;;;;28.08;13.60;;;;;;;23.68;43.43;102498.13;4432383;32;20044;-70
2021/09/01 02:14:47;;;;;;;24.73;14.15;;;;;;;23.73;43.32;102497.44;4434130;32;20073;-70
2021/09/01 02:17:13;;;;;;;27.27;13.80;;;;;;;23.63;43.16;102505.31;4433550;32;20041;-70
2021/09/01 02:19:38;;;;;;;28.42;14.20;;;;;;;23.78;42.89;102499.66;4435096;32;20037;-70
2021/09/01 02:22:04;;;;;;;29.30;13.35;;;;;;;23.72;42.96;102496.66;4433520;32;20441;-70
2021/09/01 02:24:30;;;;;;;24.27;13.02;;;;;;;23.76;43.05;102485.75;4436042;32;20098;-70
2021/09/01 02:26:56;;;;;;;25.23;12.65;;;;;;;23.67;43.09;102493.63;4432534;32;20077;-70
2021/09/01 02:29:22;;;;;;;29.95;13.50;;;;;;;23.97;42.54;102495.38;4436676;32;20467;-70
2021/09/01 02:31:48;;;;;;;25.50;13.38;;;;;;;23.96;42.65;102483.06;4436220;32;20073;-70
2021/09/01 02:34:14;;;;;;;25.52;12.35;;;;;;;23.74;42.68;102479.69;4439666;32;20033;-70
2021/09/01 02:36:40;;;;;;;27.75;12.73;;;;;;;23.78;42.83;102480.31;4433045;32;20108;-70
2021/09/01 02:39:06;;;;;;;21.62;12.20;;;;;;;23.84;42.57;102481.22;4435942;32;20072;-70
2021/09/01 02:41:32;;;;;;;22.70;12.27;;;;;;;24.07;42.29;102480.44;4433741;32;20403;-70
2021/09/01 02:43:58;;;;;;;28.20;12.45;;;;;;;23.75;42.99;102489.91;4433965;32;20033;-70
2021/09/01 02:46:23;;;;;;;24.12;12.32;;;;;;;24.02;42.26;102475.38;4436812;32;20420;-70
2021/09/01 02:48:49;;;;;;;26.20;12.37;;;;;;;24.15;42.09;102473.03;4428565;32;20120;-70
2021/09/01 02:51:16;;;;;;;23.05;12.68;;;;;;;24.20;42.02;102480.97;4427014;32;20026;-70
2021/09/01 02:53:42;;;;;;;20.70;11.70;;;;;;;24.19;42.04;102479.41;4424470;32;20073;-70
2021/09/01 02:56:08;;;;;;;21.37;11.02;;;;;;;24.03;42.34;102479.84;4424339;32;20056;-70
2021/09/01 02:58:34;;;;;;;23.58;11.00;;;;;;;24.25;42.10;102486.06;4427983;32;20510;-70
2021/09/01 03:01:00;;;;;;;19.48;10.55;;;;;;;24.22;41.99;102487.03;4425281;32;20069;-70
2021/09/01 03:03:25;;;;;;;25.65;10.15;;;;;;;24.29;41.94;102483.78;4424535;32;20099;-69
2021/09/01 03:05:51;;;;;;;19.30;10.63;;;;;;;24.26;42.03;102479.00;4424478;32;20070;-69
2021/09/01 03:08:17;;;;;;;21.35;10.35;;;;;;;24.34;41.95;102480.22;4425675;32;20413;-69
2021/09/01 03:10:43;;;;;;;20.37;9.95;;;;;;;24.19;42.25;102487.22;4425672;32;20034;-69
2021/09/01 03:13:09;;;;;;;25.75;10.20;;;;;;;24.00;42.51;102477.97;4423641;32;20523;-69
2021/09/01 03:15:35;;;;;;;18.08;10.20;;;;;;;23.39;43.73;102472.88;4427415;32;21274;-69
2021/09/01 03:18:00;;;;;;;18.90;9.65;;;;;;;23.77;43.12;102475.84;4423701;32;20045;-69
2021/09/01 03:20:26;;;;;;;17.37;9.15;;;;;;;23.89;42.90;102474.00;4423609;32;20328;-69
2021/09/01 03:22:52;;;;;;;20.27;9.70;;;;;;;23.82;42.72;102478.03;4420746;32;20077;-69
2021/09/01 03:25:18;;;;;;;24.42;9.60;;;;;;;24.04;42.71;102472.00;4426463;32;20046;-69
2021/09/01 03:27:43;;;;;;;21.50;9.70;;;;;;;23.94;42.80;102471.25;4425254;32;20103;-69
2021/09/01 03:30:10;;;;;;;17.17;8.48;;;;;;;23.15;44.48;102469.09;4422543;32;20041;-69
2021/09/01 03:32:36;;;;;;;15.55;7.32;;;;;;;23.66;43.28;102460.41;4422854;32;20086;-69
2021/09/01 03:35:02;;;;;;;14.68;6.87;;;;;;;23.99;42.52;102459.09;4422440;32;20082;-69
2021/09/01 03:37:28;;;;;;;18.62;8.32;;;;;;;23.92;42.15;102453.69;4421633;32;20152;-69
2021/09/01 03:39:54;;;;;;;15.35;6.95;;;;;;;23.99;42.17;102449.69;4428292;32;20042;-69
2021/09/01 03:42:19;;;;;;;14.80;7.25;;;;;;;23.84;42.29;102449.56;4420023;32;20379;-69
2021/09/01 03:44:45;;;;;;;17.42;7.82;;;;;;;23.94;42.27;102456.87;4422896;32;20085;-69
2021/09/01 03:47:11;;;;;;;14.15;7.60;;;;;;;24.00;42.18;102451.25;4425507;32;20814;-69
2021/09/01 03:49:38;;;;;;;19.55;8.10;;;;;;;23.91;42.31;102449.22;4426670;32;20068;-69
2021/09/01 03:52:04;;;;;;;15.75;7.95;;;;;;;23.92;42.51;102447.13;4421239;32;20046;-69
2021/09/01 03:54:29;;;;;;;19.35;8.13;;;;;;;23.81;42.50;102441.16;4426151;32;20100;-69
2021/09/01 03:56:55;;;;;;;18.00;8.10;;;;;;;23.95;42.29;102443.31;4421171;32;20060;-69
2021/09/01 03:59:21;;;;;;;19.98;8.00;;;;;;;23.79;42.63;102433.03;4424482;32;20109;-70
2021/09/01 04:01:47;;;;;;;16.42;8.00;;;;;;;23.81;42.78;102430.47;4424147;32;20089;-69
2021/09/01 04:04:13;;;;;;;22.95;8.40;;;;;;;23.56;43.03;102428.06;4425290;32;20075;-70
2021/09/01 04:06:39;;;;;;;18.85;8.20;;;;;;;23.72;42.88;102426.84;4424613;32;20057;-69
2021/09/01 04:09:05;;;;;;;24.63;9.27;;;;;;;23.68;43.00;102427.03;4423882;32;20030;-69
2021/09/01 04:11:30;;;;;;;17.85;8.88;;;;;;;23.68;42.93;102424.16;4425530;32;20026;-69
2021/09/01 04:13:56;;;;;;;19.45;8.70;;;;;;;24.00;42.32;102428.25;4422914;32;20088;-69
2021/09/01 04:16:22;;;;;;;15.82;8.48;;;;;;;23.96;42.37;102425.56;4425263;32;20156;-69
2021/09/01 04:18:47;;;;;;;17.37;8.82;;;;;;;23.86;42.51;102423.22;4425033;32;20069;-69
2021/09/01 04:21:14;;;;;;;21.40;9.05;;;;;;;23.95;42.41;102423.16;4424314;32;21200;-70
2021/09/01 04:23:39;;;;;;;18.83;8.63;;;;;;;24.02;42.39;102419.94;4418260;32;20479;-69
2021/09/01 04:26:05;;;;;;;32.45;9.60;;;;;;;23.97;42.35;102417.72;4428367;32;20072;-70
2021/09/01 04:28:31;;;;;;;18.73;9.27;;;;;;;23.95;42.40;102418.22;4422799;32;20046;-70
2021/09/01 04:30:57;;;;;;;20.00;9.23;;;;;;;23.89;42.34;102423.03;4421745;32;20018;-70
2021/09/01 04:33:23;;;;;;;21.25;11.68;;;;;;;23.88;42.78;102420.66;4420268;32;20093;-70
2021/09/01 04:35:48;;;;;;;27.62;11.75;;;;;;;23.68;43.00;102409.00;4422125;32;20076;-70
2021/09/01 04:38:14;;;;;;;25.37;11.68;;;;;;;23.87;42.71;102414.09;4427604;32;20057;-70
2021/09/01 04:40:40;;;;;;;23.12;10.98;;;;;;;23.83;42.98;102418.47;4420624;32;20459;-70
2021/09/01 04:43:06;;;;;;;21.00;9.80;;;;;;;23.83;43.03;102422.13;4425087;32;20038;-69
2021/09/01 04:45:32;;;;;;;18.15;9.52;;;;;;;23.49;43.66;102406.22;4423326;32;20057;-70
2021/09/01 04:47:58;;;;;;;23.08;9.82;;;;;;;23.35;43.74;102417.66;4423956;32;20141;-70
2021/09/01 04:50:24;;;;;;;26.85;10.00;;;;;;;23.46;43.81;102403.53;4424297;32;20101;-70
2021/09/01 04:52:50;;;;;;;22.02;10.00;;;;;;;23.72;43.23;102415.34;4423505;32;20082;-70
2021/09/01 04:55:17;;;;;;;20.95;9.63;;;;;;;23.53;43.82;102415.47;4423531;32;20072;-70
2021/09/01 04:57:44;;;;;;;21.20;9.55;;;;;;;23.72;43.16;102416.16;4422548;32;20453;-70
2021/09/01 05:00:11;;;;;;;27.20;9.85;;;;;;;23.68;43.37;102420.50;4426663;32;20434;-70
2021/09/01 05:02:36;;;;;;;20.77;9.65;;;;;;;23.62;43.68;102420.34;4423805;32;20403;-70
2021/09/01 05:05:03;;;;;;;21.80;9.88;;;;;;;23.78;43.14;102419.13;4420188;32;20134;-70
2021/09/01 05:07:29;;;;;;;23.25;10.82;;;;;;;23.73;43.28;102420.59;4421421;32;20065;-70
2021/09/01 05:09:55;;;;;;;23.67;9.73;;;;;;;23.70;43.46;102424.47;4425454;32;20018;-70
2021/09/01 05:12:21;;;;;;;18.45;9.60;;;;;;;23.90;42.97;102421.75;4423642;32;20053;-70
2021/09/01 05:14:46;;;;;;;21.98;9.52;;;;;;;23.84;42.98;102420.81;4424258;32;20374;-70
2021/09/01 05:17:12;;;;;;;23.80;9.63;;;;;;;23.91;42.78;102419.66;4423911;32;20160;-70
2021/09/01 05:19:38;;;;;;;15.65;8.63;;;;;;;23.96;42.82;102427.66;4422294;32;20056;-70
2021/09/01 05:22:06;;;;;;;22.33;9.73;;;;;;;24.02;42.73;102429.34;4421895;32;20113;-70
2021/09/01 05:24:42;;;;;;;19.65;8.82;;;;;;;24.27;42.36;102428.03;4423286;32;20145;-70
2021/09/01 05:27:15;;;;;;;19.98;9.38;;;;;;;24.37;42.05;102432.41;4424228;32;20022;-70
2021/09/01 05:29:43;;;;;;;23.30;9.85;;;;;;;24.29;42.24;102434.88;4423086;32;20090;-70
2021/09/01 05:32:16;;;;;;;22.37;9.93;;;;;;;24.35;42.02;102438.66;4422766;32;20021;-70
2021/09/01 05:34:42;;;;;;;22.75;9.48;;;;;;;24.48;41.62;102435.50;4423156;32;20133;-70
2021/09/01 05:37:12;;;;;;;22.02;10.40;;;;;;;24.13;42.30;102443.16;4422207;32;20156;-70
2021/09/01 05:39:42;;;;;;;26.65;9.82;;;;;;;24.27;42.20;102440.31;4424768;32;20088;-70
2021/09/01 05:42:08;;;;;;;20.85;10.98;;;;;;;24.32;42.19;102450.34;4422778;32;20038;-70
2021/09/01 05:44:35;;;;;;;23.23;10.20;;;;;;;24.34;41.95;102436.25;4425482;32;20071;-70
2021/09/01 05:47:02;;;;;;;19.20;9.05;;;;;;;24.30;42.24;102445.06;4421340;32;20054;-70
2021/09/01 05:49:29;;;;;;;23.42;9.32;;;;;;;24.30;42.00;102439.31;4420930;32;20428;-70
2021/09/01 05:51:56;;;;;;;20.35;9.65;;;;;;;24.49;41.99;102440.75;4423263;32;20443;-70
2021/09/01 05:54:21;;;;;;;25.62;10.20;;;;;;;24.59;41.72;102436.50;4422785;32;20376;-70
2021/09/01 05:56:52;;;;;;;20.10;9.73;;;;;;;24.37;41.80;102441.03;4422554;32;20064;-70
2021/09/01 05:59:21;;;;;;;20.83;9.75;;;;;;;24.76;41.21;102434.72;4421659;32;20069;-70
2021/09/01 06:01:55;;;;;;;23.27;8.65;;;;;;;24.41;41.76;102438.75;4421501;32;20078;-69
2021/09/01 06:04:24;;;;;;;21.08;9.75;;;;;;;24.61;nan;102436.75;4422560;32;20053;-69
2021/09/01 06:06:52;;;;;;;19.27;9.75;;;;;;;24.66;41.38;102444.75;4420659;32;20040;-70
2021/09/01 06:09:19;;;;;;;19.65;8.95;;;;;;;24.70;41.21;102442.47;4419772;32;20022;-69
2021/09/01 06:11:48;;;;;;;21.35;9.45;;;;;;;24.58;41.02;102443.50;4417710;32;20050;-69
2021/09/01 06:14:14;;;;;;;26.50;9.48;;;;;;;24.58;41.31;102445.62;4421372;32;20050;-69
2021/09/01 06:16:40;;;;;;;17.30;9.32;;;;;;;24.45;41.52;102442.25;4419018;32;20037;-69
2021/09/01 06:19:06;;;;;;;25.50;9.80;;;;;;;24.36;41.64;102443.09;4422917;32;20441;-69
2021/09/01 06:21:34;;;;;;;17.75;8.30;;;;;;;24.43;41.39;102453.44;4425854;32;20034;-69
2021/09/01 06:23:59;;;;;;;18.73;8.60;;;;;;;24.60;41.19;102455.34;4422796;32;20403;-69
2021/09/01 06:26:25;;;;;;;21.37;8.63;;;;;;;24.38;41.50;102457.81;4425454;32;20127;-69
2021/09/01 06:28:51;;;;;;;17.83;7.68;;;;;;;24.37;41.65;102461.19;4424146;32;20129;-70
2021/09/01 06:31:19;;;;;;;17.80;8.40;;;;;;;24.49;41.05;102454.34;4426351;32;20085;-69
2021/09/01 06:33:46;;;;;;;20.42;8.77;;;;;;;24.56;41.25;102451.88;4422257;32;20085;-69
2021/09/01 06:36:12;;;;;;;19.15;9.23;;;;;;;24.57;41.31;102453.44;4420517;32;20162;-69
2021/09/01 06:38:38;;;;;;;15.75;8.25;;;;;;;24.64;40.97;102458.03;4422831;32;20087;-70
2021/09/01 06:41:03;;;;;;;22.27;8.23;;;;;;;24.66;41.01;102459.16;4423946;32;20081;-70
2021/09/01 06:43:29;;;;;;;23.05;8.40;;;;;;;24.54;41.20;102460.19;4422884;32;20038;-70
2021/09/01 06:45:55;;;;;;;21.00;7.78;;;;;;;24.19;41.90;102465.00;4419056;32;20053;-70
2021/09/01 06:48:22;;;;;;;25.08;14.63;;;;;;;24.50;41.52;102459.59;4423695;32;20064;-69
2021/09/01 06:50:48;;;;;;;23.05;7.85;;;;;;;24.57;41.42;102469.91;4421318;32;20130;-70
2021/09/01 06:53:14;;;;;;;23.08;8.05;;;;;;;24.51;41.84;102469.03;4420654;32;20466;-69
2021/09/01 06:55:40;;;;;;;23.15;8.05;;;;;;;24.47;42.01;102462.66;4422142;32;20080;-70
2021/09/01 06:58:16;;;;;;;17.87;7.60;;;;;;;24.52;41.93;102462.78;4422212;32;20078;-69
2021/09/01 07:00:42;;;;;;;20.17;8.55;;;;;;;24.54;42.04;102477.47;4426388;32;20069;-69
2021/09/01 07:03:08;;;;;;;20.12;7.82;;;;;;;24.63;42.40;102468.75;4419260;32;20042;-69
2021/09/01 07:05:34;;;;;;;19.45;7.53;;;;;;;24.30;42.96;102473.84;4423629;32;20441;-69
2021/09/01 07:08:10;;;;;;;17.08;8.30;;;;;;;23.55;44.49;102472.47;4424954;32;20204;-69
2021/09/01 07:10:36;;;;;;;20.23;9.20;;;;;;;24.35;43.49;102478.13;4418455;32;20613;-69
2021/09/01 07:13:02;;;;;;;24.35;10.85;;;;;;;23.51;45.54;102480.47;4412391;32;20138;-69
2021/09/01 07:15:27;;;;;;;20.17;10.02;;;;;;;23.72;45.03;102475.72;4421320;32;20192;-68
2021/09/01 07:17:53;;;;;;;22.48;10.65;;;;;;;24.06;44.43;102473.13;4421203;32;20537;-69
2021/09/01 07:20:21;;;;;;;25.17;11.25;;;;;;;24.11;44.37;102472.41;4424396;32;20085;-69
2021/09/01 07:22:47;;;;;;;21.17;11.12;;;;;;;24.08;44.52;102473.41;4416492;32;20074;-69
2021/09/01 07:25:13;;;;;;;25.30;10.52;;;;;;;24.42;44.22;102480.66;4417030;32;20107;-69
2021/09/01 07:27:39;;;;;;;24.80;10.57;;;;;;;24.16;44.38;102477.50;4418677;32;20088;-70
2021/09/01 07:30:05;;;;;;;21.87;10.43;;;;;;;24.25;43.97;102482.38;4422616;32;20064;-70
2021/09/01 07:32:32;;;;;;;22.75;10.38;;;;;;;24.30;44.19;102476.72;4420971;32;20045;-70
2021/09/01 07:34:57;;;;;;;26.15;10.07;;;;;;;24.60;43.50;102481.25;4422598;32;20239;-70
2021/09/01 07:37:23;;;;;;;24.90;10.02;;;;;;;24.54;43.23;102477.47;4417128;32;20150;-70
2021/09/01 07:39:49;;;;;;;19.42;9.65;;;;;;;24.87;42.45;102483.87;4419130;32;20332;-70
2021/09/01 07:42:15;;;;;;;23.85;11.15;;;;;;;24.91;42.43;102480.81;4421141;32;20460;-70
2021/09/01 07:44:41;;;;;;;25.00;10.02;;;;;;;24.98;42.44;102475.41;4422387;32;20073;-70
2021/09/01 07:47:07;;;;;;;20.67;10.15;;;;;;;25.15;41.95;102488.03;4413175;32;20341;-70
2021/09/01 07:49:33;;;;;;;19.60;10.13;;;;;;;24.89;42.02;102481.31;4420432;32;20077;-70
2021/09/01 07:52:00;;;;;;;22.02;9.82;;;;;;;24.81;42.66;102477.22;4415746;32;20104;-70
2021/09/01 07:54:26;;;;;;;17.25;8.60;;;;;;;25.22;41.59;102478.97;4422756;32;20504;-70
2021/09/01 07:56:51;;;;;;;18.87;8.23;;;;;;;25.46;41.10;102478.06;4418726;32;20033;-70
2021/09/01 07:59:17;;;;;;;16.77;9.77;;;;;;;25.35;40.91;102475.81;4421243;32;20481;-70
2021/09/01 08:01:43;;;;;;;21.85;9.45;;;;;;;25.50;40.50;102478.66;4417148;32;20097;-70
2021/09/01 08:04:09;;;;;;;16.48;9.02;;;;;;;25.39;40.46;102487.91;4422484;32;20069;-70
2021/09/01 08:06:34;;;;;;;19.33;9.77;;;;;;;25.63;40.36;102484.88;4419522;32;20535;-70
2021/09/01 08:09:01;;;;;;;18.58;9.32;;;;;;;25.72;40.14;102487.63;4420600;32;20092;-70
2021/09/01 08:11:26;;;;;;;20.02;9.05;;;;;;;25.67;40.24;102491.25;4415789;32;20109;-70
2021/09/01 08:13:52;;;;;;;21.33;9.23;;;;;;;25.92;39.76;102476.91;4420818;32;20089;-70
2021/09/01 08:16:18;;;;;;;15.98;8.63;;;;;;;26.02;39.48;102486.25;4422229;32;20100;-71
2021/09/01 08:18:44;;;;;;;14.85;6.93;;;;;;;26.11;39.32;102486.88;4417435;32;20104;-70
2021/09/01 08:21:10;;;;;;;13.23;7.10;;;;;;;25.81;39.40;102487.50;4418354;32;20037;-70
2021/09/01 08:23:36;;;;;;;15.32;7.35;;;;;;;25.58;39.97;102494.25;4412781;32;20056;-70
2021/09/01 08:26:03;;;;;;;13.10;6.80;;;;;;;25.83;39.22;102488.56;4420065;32;20064;-70
2021/09/01 08:28:29;;;;;;;13.90;7.18;;;;;;;26.14;38.99;102494.53;4419357;32;20041;-70
2021/09/01 08:30:55;;;;;;;13.60;7.10;;;;;;;25.93;39.13;102501.59;4419146;32;20095;-70
2021/09/01 08:33:21;;;;;;;12.68;6.78;;;;;;;26.16;38.98;102500.59;4416500;32;20827;-70
2021/09/01 08:35:47;;;;;;;15.63;6.40;;;;;;;26.35;38.57;102504.75;4418498;32;20064;-70
2021/09/01 08:38:13;;;;;;;14.68;6.12;;;;;;;26.66;37.53;102501.22;4417952;32;20093;-70
2021/09/01 08:40:39;;;;;;;11.93;5.78;;;;;;;26.54;38.04;102505.25;4418693;32;20082;-70
2021/09/01 08:43:06;;;;;;;10.52;5.82;;;;;;;26.58;38.15;102508.69;4420243;32;20101;-70
2021/09/01 08:45:32;;;;;;;10.68;5.47;;;;;;;26.68;37.92;102510.16;4417311;32;20414;-70
2021/09/01 08:47:59;;;;;;;9.35;5.03;;;;;;;26.86;37.58;102501.94;4418526;32;20134;-71
2021/09/01 08:50:27;;;;;;;12.43;6.05;;;;;;;27.01;37.41;102510.50;4419339;32;20319;-70
2021/09/01 08:52:53;;;;;;;13.82;5.75;;;;;;;27.21;36.97;102514.09;4414214;32;20085;-70
2021/09/01 08:55:19;;;;;;;11.98;6.25;;;;;;;26.77;37.57;102521.53;4419397;32;20103;-70
2021/09/01 08:57:45;;;;;;;10.02;5.40;;;;;;;26.76;37.67;102523.66;4411870;32;20053;-71
2021/09/01 09:00:12;;;;;;;8.57;5.00;;;;;;;26.63;38.77;102528.22;4415887;32;20437;-71
2021/09/01 09:02:37;;;;;;;10.80;5.32;;;;;;;26.50;39.15;102522.78;4417725;32;20081;-70
2021/09/01 09:05:08;;;;;;;10.25;5.72;;;;;;;25.94;41.20;102523.34;4416574;32;20793;-71
2021/09/01 09:07:54;;;;;;;11.77;6.47;;;;;;;25.83;41.49;102520.31;4417369;32;20042;-71
2021/09/01 09:10:37;;;;;;;11.95;6.50;;;;;;;25.65;41.77;102511.94;4421890;32;20340;-70
2021/09/01 09:15:40;;;;;;;16.23;7.40;;;;;;;26.20;42.13;102520.59;3982255;32;15028338;-72
2021/09/01 09:18:27;;;;;;;16.10;6.40;;;;;;;26.20;42.13;102520.59;4435079;32;20078;-70
2021/09/01 09:21:15;;;;;;;14.32;6.03;;;;;;;26.09;41.01;102514.66;4432294;32;20472;-69
2021/09/01 09:23:43;;;;;;;12.13;5.82;;;;;;;26.38;39.94;102512.41;4430370;32;20040;-70
2021/09/01 09:29:18;;;;;;;11.40;6.28;;;;;;;26.86;38.90;102507.72;3992215;31;15016667;-71
2021/09/01 09:31:57;;;;;;;13.48;6.43;;;;;;;26.45;39.46;102499.62;4450720;32;20491;-71
2021/09/01 09:34:33;;;;;;;12.90;6.60;;;;;;;26.36;39.61;102514.22;4448645;32;20419;-71
2021/09/01 09:37:02;;;;;;;11.10;6.20;;;;;;;26.91;38.81;102503.31;4446755;32;20437;-71
2021/09/01 09:39:49;;;;;;;12.70;6.53;;;;;;;26.95;38.61;102506.75;4449056;32;20110;-71
2021/09/01 09:42:37;;;;;;;12.77;6.68;;;;;;;27.48;37.27;102506.19;4450495;32;20089;-71
2021/09/01 09:47:56;;;;;;;16.17;6.45;;;;;;;28.06;36.17;102509.19;3982315;32;15026742;-71
2021/09/01 09:50:22;;;;;;;15.60;6.80;;;;;;;28.06;36.17;102509.19;4432477;32;20504;-71
2021/09/01 09:52:49;;;;;;;14.07;6.60;;;;;;;27.65;36.24;102509.97;4427393;32;20064;-71
2021/09/01 09:55:18;;;;;;;13.48;6.37;;;;;;;27.79;36.16;102517.69;4434578;32;20052;-71
2021/09/01 10:00:25;;;;;;;11.50;6.55;;;;;;;28.52;35.51;102518.34;3980729;32;15026585;-70
2021/09/01 10:02:51;;;;;;;14.30;6.43;;;;;;;28.52;35.51;102518.34;4436549;32;20414;-70
2021/09/01 10:05:19;;;;;;;17.92;7.55;;;;;;;27.99;36.42;102515.47;4433184;32;20088;-70
2021/09/01 10:07:47;;;;;;;11.45;6.50;;;;;;;27.92;36.22;102520.97;4433518;32;20134;-70
2021/09/01 10:10:14;;;;;;;16.83;7.47;;;;;;;27.80;35.95;102504.81;4437609;32;20029;-70
2021/09/01 10:12:43;;;;;;;12.80;6.95;;;;;;;27.51;36.55;102514.59;4433225;32;20037;-70
2021/09/01 10:15:18;;;;;;;16.33;6.70;;;;;;;26.59;37.85;102505.31;4436360;32;20061;-70
2021/09/01 10:17:48;;;;;;;13.55;7.18;;;;;;;26.97;37.03;102504.16;4436090;32;20038;-70
2021/09/01 10:20:19;;;;;;;11.60;6.82;;;;;;;26.98;37.25;102512.31;4435763;32;20363;-69
2021/09/01 10:22:59;;;;;;;13.95;6.62;;;;;;;26.93;37.11;102509.34;4432527;32;20061;-70
2021/09/01 10:25:42;;;;;;;11.63;6.82;;;;;;;27.59;35.89;102512.03;4431567;32;20073;-70
2021/09/01 10:33:50;;;;;;;15.98;7.50;;;;;;;27.59;36.12;102520.72;4003595;31;15018009;-71
2021/09/01 10:41:39;;;;;;;14.25;7.15;;;;;;;27.18;36.30;102509.31;3982320;32;15027876;-71
2021/09/01 10:53:08;;;;;;;16.17;7.70;;;;;;;27.48;35.76;102501.19;3994130;31;15021562;-69
2021/09/01 10:56:05;;;;;;;17.15;9.95;;;;;;;27.13;36.33;102512.94;4441794;32;20569;-72
2021/09/01 11:04:03;;;;;;;13.95;7.60;;;;;;;29.10;33.59;102504.22;3973028;32;15025035;-69
2021/09/01 11:06:35;;;;;;;17.12;8.27;;;;;;;29.10;33.59;102504.22;4425054;32;20073;-69
2021/09/01 11:09:19;;;;;;;22.65;9.23;;;;;;;28.76;33.71;102497.59;4425788;32;20070;-69
2021/09/01 11:19:46;;;;;;;18.55;9.73;;;;;;;27.83;36.10;102497.97;3972061;32;15026491;-70
2021/09/01 11:22:14;;;;;;;20.48;10.65;;;;;;;27.83;36.10;102497.97;4424557;32;20112;-70
2021/09/01 11:24:49;;;;;;;23.20;10.30;;;;;;;27.16;37.77;102497.47;4425468;32;20069;-70
2021/09/01 11:27:16;;;;;;;;;;;;;;;26.99;38.35;102487.87;4428501;32;20083;-70
2021/09/01 11:29:42;;;;;;;22.60;11.07;;;;;;;27.28;37.34;102494.72;4424700;32;19949;-70
2021/09/01 11:32:13;;;;;;;20.23;10.10;;;;;;;27.43;37.43;102495.34;4424049;32;20096;-70
2021/09/01 11:34:39;;;;;;;27.87;10.75;;;;;;;26.93;38.17;102504.37;4425195;32;20111;-70
2021/09/01 11:37:04;;;;;;;22.62;10.80;;;;;;;27.31;37.23;102511.03;4425046;32;20034;-70
2021/09/01 11:39:30;;;;;;;20.92;10.77;;;;;;;27.04;37.51;102500.78;4426477;32;20144;-70
2021/09/01 11:42:00;;;;;;;22.02;11.48;;;;;;;27.19;37.80;102501.44;4425235;32;20038;-70
2021/09/01 11:44:26;;;;;;;22.75;11.00;;;;;;;27.45;38.22;102502.19;4423796;32;20069;-70
2021/09/01 11:46:52;;;;;;;23.23;11.77;;;;;;;26.70;39.20;102496.00;4425307;32;20073;-70
2021/09/01 11:49:18;;;;;;;21.37;11.18;;;;;;;26.74;38.87;102497.34;4425298;32;20108;-70
2021/09/01 11:51:46;;;;;;;22.42;10.65;;;;;;;27.04;38.69;102497.91;4424357;32;20077;-70
2021/09/01 11:54:14;;;;;;;23.00;10.63;;;;;;;27.70;37.20;102492.62;4423344;32;20119;-70
2021/09/01 11:56:40;;;;;;;18.52;10.60;;;;;;;28.16;36.24;102495.28;4425572;32;20104;-70
2021/09/01 11:59:08;;;;;;;24.35;11.48;;;;;;;28.05;35.92;102492.34;4423874;32;20104;-70
2021/09/01 12:01:42;;;;;;;24.92;11.10;;;;;;;28.59;35.11;102493.88;4423933;32;20208;-70
2021/09/01 12:04:10;;;;;;;22.73;11.10;;;;;;;28.83;34.75;102486.28;4421669;32;20141;-70